FW1160 Bellingham WA US current weather conditions

sailwx.info

Wind from 210 at 8 knots gusting 13

Air temperature 11.7° C
Dewpoint 7.8° C

Last reported at 2019-Nov-17 00:00 UTC.
Time now 2019-Nov-17 00:32 UTC

Location: N 48°45' W 122°21'.
View on Google Maps.

See reports from other nearby stations

  
Tides and Currents Weather Stations Pressure Air Temp Water Temp Dewpoint Dewpoint Depression Visibility Wind Speed Wind Dir Waves Ship Positions
date/time (UTC)wind fromknots sea level pressurealtimeterstation pressurevisibilityair tempwater tempwave heightnotes
2019-Nov-17 00:00 210 8 gusting 13 11.7
2019-Nov-16 23:45 115 5 gusting 11 11.1
2019-Nov-16 23:31 055 10.0
2019-Nov-16 23:15 049 10.6
2019-Nov-16 23:00 128 1 gusting 6 11.1
2019-Nov-16 22:45 084 2 gusting 7 10.6
2019-Nov-16 22:30 098 10.6
2019-Nov-16 22:15 113 10.6
2019-Nov-16 22:00 204 3 gusting 11 10.6
2019-Nov-16 21:45 113 1 gusting 5 10.6
2019-Nov-16 21:30 090 0 gusting 6 10.0
2019-Nov-16 21:15 124 10.0
2019-Nov-16 21:01 207 10.0
2019-Nov-16 20:47 135 10.0
2019-Nov-16 20:33 100 10.0
2019-Nov-16 20:16 191 10.0
2019-Nov-16 20:01 119 10.0
2019-Nov-16 19:47 149 0 gusting 1 10.6
2019-Nov-16 19:31 040 0 gusting 3 10.6
2019-Nov-16 19:18 155 10.6
2019-Nov-16 19:01 168 0 gusting 4 10.6
2019-Nov-16 18:46 110 0 gusting 3 11.1
2019-Nov-16 18:31 205 0 gusting 4 11.1
2019-Nov-16 18:16 152 1 gusting 9 11.1
2019-Nov-16 18:03 157 6 gusting 12 11.1
2019-Nov-16 17:46 155 4 gusting 10 10.6
2019-Nov-16 17:31 181 10.6
2019-Nov-16 17:16 127 0 gusting 4 10.6
2019-Nov-16 17:01 162 0 gusting 6 10.0
2019-Nov-16 16:46 090 9.4
2019-Nov-16 16:31 129 9.4
2019-Nov-16 16:16 110 0 gusting 4 9.4
2019-Nov-16 16:01 120 0 gusting 4 8.9
2019-Nov-16 15:46 102 1 gusting 7 9.4
2019-Nov-16 15:31 122 0 gusting 7 9.4
2019-Nov-16 15:15 198 1 gusting 5 9.4
2019-Nov-16 15:01 136 1 gusting 6 9.4
2019-Nov-16 14:45 125 9.4
2019-Nov-16 14:30 156 1 gusting 5 9.4
2019-Nov-16 14:16 143 1 gusting 5 9.4
2019-Nov-16 14:00 221 0 gusting 4 9.4
2019-Nov-16 13:46 113 0 gusting 5 9.4
2019-Nov-16 13:30 127 0 gusting 3 9.4
2019-Nov-16 13:15 122 9.4
2019-Nov-16 13:01 138 9.4
2019-Nov-16 12:45 121 0 gusting 7 9.4
2019-Nov-16 12:30 077 1 gusting 4 8.9
2019-Nov-16 12:15 307 0 gusting 3 8.3
2019-Nov-16 12:00 113 0 gusting 2 7.8
2019-Nov-16 11:45 041 0 gusting 1 7.8
2019-Nov-16 11:30 062 7.2
2019-Nov-16 11:15 071 7.2
2019-Nov-16 11:00 071 7.2
2019-Nov-16 10:45 070 7.2
2019-Nov-16 10:30 069 7.2
2019-Nov-16 10:15 079 7.8
2019-Nov-16 10:00 075 7.2
2019-Nov-16 09:45 075 7.2
2019-Nov-16 09:30 075 7.8
2019-Nov-16 09:18 077 7.2
2019-Nov-16 09:01 101 7.2
2019-Nov-16 08:48 115 7.2
2019-Nov-16 08:32 055 7.2
2019-Nov-16 08:16 100 7.2
2019-Nov-16 08:01 065 7.2
2019-Nov-16 07:47 094 6.7
2019-Nov-16 07:32 101 6.7
2019-Nov-16 07:16 059 0 gusting 2 6.1
2019-Nov-16 07:01 093 0 gusting 1 6.1
2019-Nov-16 06:46 082 0 gusting 1 6.1
2019-Nov-16 06:30 036 6.1
2019-Nov-16 06:16 056 6.1
2019-Nov-16 06:02 072 0 gusting 1 6.1
2019-Nov-16 05:45 113 0 gusting 2 6.1
2019-Nov-16 05:32 051 0 gusting 1 6.1
2019-Nov-16 05:16 092 6.1
2019-Nov-16 05:02 091 0 gusting 0 6.7
2019-Nov-16 04:46 046 6.7
2019-Nov-16 04:31 071 6.7
2019-Nov-16 04:15 071 0 gusting 2 7.2
2019-Nov-16 04:00 132 7.8
2019-Nov-16 03:45 079 7.8
2019-Nov-16 03:30 082 8.3
2019-Nov-16 03:15 134 0 gusting 5 8.9
2019-Nov-16 03:00 103 8.9
2019-Nov-16 02:45 139 9.4
2019-Nov-16 02:30 138 0 gusting 5 10.0
2019-Nov-16 02:15 131 0 gusting 5 10.0
2019-Nov-16 01:46 120 1 gusting 3 10.6
2019-Nov-16 01:32 128 0 gusting 3 10.6
2019-Nov-16 01:16 179 2 gusting 6 10.6
2019-Nov-16 01:01 205 10.6
2019-Nov-16 00:46 124 0 gusting 3 11.1
2019-Nov-16 00:31 172 1 gusting 4 11.1
2019-Nov-16 00:16 140 11.7
2019-Nov-16 00:01 094 0 gusting 5 12.2
2019-Nov-15 23:46 190 1 gusting 6 12.2
2019-Nov-15 23:31 110 2 gusting 7 12.2
2019-Nov-15 23:16 086 1 gusting 7 12.2
2019-Nov-15 23:01 115 3 gusting 12 12.2
2019-Nov-15 22:46 167 2 gusting 6 12.2
2019-Nov-15 22:31 221 2 gusting 6 12.8
2019-Nov-15 22:16 105 1 gusting 6 13.3
2019-Nov-15 22:01 149 2 gusting 6 12.2
2019-Nov-15 21:46 099 3 gusting 8 12.2
2019-Nov-15 21:31 158 1 gusting 6 12.2
2019-Nov-15 21:15 138 1 gusting 7 11.1
2019-Nov-15 21:00 105 1 gusting 8 11.1
2019-Nov-15 20:46 119 0 gusting 8 11.1
2019-Nov-15 20:30 115 0 gusting 5 10.6
2019-Nov-15 20:15 248 0 gusting 7 10.6
2019-Nov-15 20:01 109 1 gusting 8 10.6
2019-Nov-15 19:45 332 3 gusting 10 10.6
2019-Nov-15 19:30 174 4 gusting 11 10.6
2019-Nov-15 19:15 153 6 gusting 13 10.6
2019-Nov-15 19:00 190 4 gusting 15 10.6
2019-Nov-15 18:45 152 12 gusting 16 10.6
2019-Nov-15 18:30 174 6 gusting 13 10.6
2019-Nov-15 18:15 162 6 gusting 14 10.6
2019-Nov-15 18:00 161 6 gusting 14 10.6
2019-Nov-15 17:45 119 10 gusting 15 10.6
2019-Nov-15 17:30 145 12 gusting 19 10.6
2019-Nov-15 17:15 153 13 gusting 19 10.6
2019-Nov-15 17:00 162 8 gusting 14 10.6
2019-Nov-15 16:45 143 8 gusting 15 10.6
2019-Nov-15 16:31 161 5 gusting 14 11.1
2019-Nov-15 16:17 160 4 gusting 12 10.6
2019-Nov-15 16:02 128 2 gusting 17 10.6
2019-Nov-15 15:48 160 2 gusting 9 10.6
2019-Nov-15 15:31 158 2 gusting 9 10.0
2019-Nov-15 15:17 105 2 gusting 8 10.0
2019-Nov-15 15:01 165 1 gusting 5 9.4
2019-Nov-15 14:47 181 1 gusting 6 9.4
2019-Nov-15 14:32 152 3 gusting 9 9.4
2019-Nov-15 14:16 091 2 gusting 14 9.4
2019-Nov-15 14:02 132 8 gusting 22 10.0
2019-Nov-15 13:46 155 11 gusting 24 10.6
2019-Nov-15 13:32 166 11 gusting 19 10.6
2019-Nov-15 13:16 186 11 gusting 18 11.1
2019-Nov-15 13:01 160 14 gusting 22 11.7
2019-Nov-15 12:48 161 13 gusting 19 12.8
2019-Nov-15 12:31 155 13 gusting 19 12.8
2019-Nov-15 12:16 160 11 gusting 19 12.8
2019-Nov-15 12:01 164 11 gusting 15 12.8
2019-Nov-15 11:46 169 9 gusting 16 12.2
2019-Nov-15 11:31 165 13 gusting 20 12.8
2019-Nov-15 11:16 176 9 gusting 17 12.2
2019-Nov-15 11:01 156 10 gusting 17 12.8
2019-Nov-15 10:46 169 11 gusting 17 12.2
2019-Nov-15 10:31 186 6 gusting 12 12.2
2019-Nov-15 10:16 215 2 gusting 10 10.6
2019-Nov-15 10:01 314 10.0
2019-Nov-15 09:46 082 10.0
2019-Nov-15 09:31 319 3 gusting 6 10.6
2019-Nov-15 09:16 012 2 gusting 6 10.6
2019-Nov-15 09:01 314 4 gusting 8 11.7
2019-Nov-15 08:46 197 4 gusting 16 12.8
2019-Nov-15 08:30 138 6 gusting 14 11.7
2019-Nov-15 08:15 148 1 gusting 17 12.2
2019-Nov-15 08:00 181 1 gusting 7 7.8
2019-Nov-15 07:45 091 7.8
2019-Nov-15 07:30 089 7.2
2019-Nov-15 07:15 120 7.8
2019-Nov-15 07:00 085 7.8
2019-Nov-15 06:45 084 7.8
2019-Nov-15 06:30 162 7.8
2019-Nov-15 06:15 095 7.8
2019-Nov-15 06:00 096 8.3
2019-Nov-15 05:46 015 8.3
2019-Nov-15 05:30 309 8.9
2019-Nov-15 05:15 019 8.9
2019-Nov-15 05:01 019 9.4
2019-Nov-15 04:46 008 0 gusting 2 9.4
2019-Nov-15 04:30 072 0 gusting 2 8.9
2019-Nov-15 04:15 075 9.4
2019-Nov-15 04:00 105 8.9
2019-Nov-15 03:45 067 0 gusting 2 9.4
2019-Nov-15 03:30 079 9.4
2019-Nov-15 03:15 158 1 gusting 4 8.9
2019-Nov-15 03:00 015 8.3
2019-Nov-15 02:45 053 8.3
2019-Nov-15 02:30 012 7.8
2019-Nov-15 02:16 101 7.8
2019-Nov-15 02:15 101 7.8
2019-Nov-15 02:02 085 8.3
2019-Nov-15 01:46 005 8.3
2019-Nov-15 01:32 005 0 gusting 1 8.9
2019-Nov-15 01:16 089 8.9
2019-Nov-15 01:02 024 8.9
2019-Nov-15 00:47 323 9.4
2019-Nov-15 00:32 096 10.0
2019-Nov-15 00:17 096 10.0
2019-Nov-15 00:03 131 10.0